sensor_id;sensor_type;location;lat;lon;timestamp;pressure;altitude;pressure_sealevel;temperature;humidity
46408;BME280;32110;45.724;21.276;2023-07-02T00:02:24;99592.75;;;18.73;nan
46408;BME280;32110;45.724;21.276;2023-07-02T00:04:50;99583.75;;;18.69;nan
46408;BME280;32110;45.724;21.276;2023-07-02T00:07:15;99589.09;;;18.69;nan
46408;BME280;32110;45.724;21.276;2023-07-02T00:09:40;99549.03;;;18.46;nan
46408;BME280;32110;45.724;21.276;2023-07-02T00:12:06;99584.34;;;18.66;nan
46408;BME280;32110;45.724;21.276;2023-07-02T00:14:32;99583.06;;;18.63;nan
46408;BME280;32110;45.724;21.276;2023-07-02T00:16:58;99585.91;;;18.67;nan
46408;BME280;32110;45.724;21.276;2023-07-02T00:19:23;99593.91;;;18.67;nan
46408;BME280;32110;45.724;21.276;2023-07-02T00:21:48;99595.81;;;18.66;nan
46408;BME280;32110;45.724;21.276;2023-07-02T00:24:14;99594.25;;;18.65;nan
46408;BME280;32110;45.724;21.276;2023-07-02T00:26:41;99579.63;;;18.63;nan
46408;BME280;32110;45.724;21.276;2023-07-02T00:29:07;99588.31;;;18.68;nan
46408;BME280;32110;45.724;21.276;2023-07-02T00:31:33;99582.69;;;18.70;nan
46408;BME280;32110;45.724;21.276;2023-07-02T00:33:59;99580.19;;;18.74;nan
46408;BME280;32110;45.724;21.276;2023-07-02T00:36:26;99587.09;;;18.75;nan
46408;BME280;32110;45.724;21.276;2023-07-02T00:38:51;99583.16;;;18.72;nan
46408;BME280;32110;45.724;21.276;2023-07-02T00:41:17;99568.97;;;18.63;nan
46408;BME280;32110;45.724;21.276;2023-07-02T00:43:43;99584.25;;;18.71;nan
46408;BME280;32110;45.724;21.276;2023-07-02T00:46:15;99585.53;;;18.74;nan
46408;BME280;32110;45.724;21.276;2023-07-02T00:48:54;99581.38;;;18.67;nan
46408;BME280;32110;45.724;21.276;2023-07-02T00:53:47;99589.28;;;18.73;nan
46408;BME280;32110;45.724;21.276;2023-07-02T00:56:13;99581.38;;;18.67;nan
46408;BME280;32110;45.724;21.276;2023-07-02T00:58:41;99578.41;;;18.69;nan
46408;BME280;32110;45.724;21.276;2023-07-02T01:01:13;99590.06;;;18.73;nan
46408;BME280;32110;45.724;21.276;2023-07-02T01:03:49;99574.75;;;18.65;nan
46408;BME280;32110;45.724;21.276;2023-07-02T01:06:17;99596.19;;;18.74;nan
46408;BME280;32110;45.724;21.276;2023-07-02T01:08:44;99597.28;;;18.73;nan
46408;BME280;32110;45.724;21.276;2023-07-02T01:11:10;99599.16;;;18.72;nan
46408;BME280;32110;45.724;21.276;2023-07-02T01:13:35;99585.91;;;18.67;nan
46408;BME280;32110;45.724;21.276;2023-07-02T01:16:01;99594.13;;;18.70;nan
46408;BME280;32110;45.724;21.276;2023-07-02T01:18:26;99601.81;;;18.72;nan
46408;BME280;32110;45.724;21.276;2023-07-02T01:20:52;99595.19;;;18.69;nan
46408;BME280;32110;45.724;21.276;2023-07-02T01:23:18;99588.09;;;18.65;nan
46408;BME280;32110;45.724;21.276;2023-07-02T01:25:44;99596.00;;;18.70;nan
46408;BME280;32110;45.724;21.276;2023-07-02T01:28:10;99596.00;;;18.70;nan
46408;BME280;32110;45.724;21.276;2023-07-02T01:30:37;99590.47;;;18.66;nan
46408;BME280;32110;45.724;21.276;2023-07-02T01:33:03;99582.88;;;18.60;nan
46408;BME280;32110;45.724;21.276;2023-07-02T01:35:28;99596.19;;;18.60;nan
46408;BME280;32110;45.724;21.276;2023-07-02T01:37:53;99590.59;;;18.47;nan
46408;BME280;32110;45.724;21.276;2023-07-02T01:40:19;99586.13;;;18.43;nan
46408;BME280;32110;45.724;21.276;2023-07-02T01:42:45;99592.25;;;18.43;nan
46408;BME280;32110;45.724;21.276;2023-07-02T01:45:10;99594.25;;;18.38;nan
46408;BME280;32110;45.724;21.276;2023-07-02T01:47:35;99608.06;;;18.40;nan
46408;BME280;32110;45.724;21.276;2023-07-02T01:50:03;99600.66;;;18.37;nan
46408;BME280;32110;45.724;21.276;2023-07-02T01:52:28;99605.69;;;18.38;nan
46408;BME280;32110;45.724;21.276;2023-07-02T01:54:58;99607.84;;;18.36;nan
46408;BME280;32110;45.724;21.276;2023-07-02T01:57:23;99610.22;;;18.38;nan
46408;BME280;32110;45.724;21.276;2023-07-02T01:59:49;99594.13;;;18.29;nan
46408;BME280;32110;45.724;21.276;2023-07-02T02:02:14;99604.91;;;18.38;nan
46408;BME280;32110;45.724;21.276;2023-07-02T02:04:39;99586.13;;;18.29;nan
46408;BME280;32110;45.724;21.276;2023-07-02T02:07:05;99593.84;;;18.31;nan
46408;BME280;32110;45.724;21.276;2023-07-02T02:09:30;99599.97;;;18.31;nan
46408;BME280;32110;45.724;21.276;2023-07-02T02:11:57;99601.34;;;18.28;nan
46408;BME280;32110;45.724;21.276;2023-07-02T02:14:23;99583.97;;;18.17;nan
46408;BME280;32110;45.724;21.276;2023-07-02T02:16:48;99592.94;;;18.21;nan
46408;BME280;32110;45.724;21.276;2023-07-02T02:19:14;99590.28;;;18.21;nan
46408;BME280;32110;45.724;21.276;2023-07-02T02:21:41;99593.44;;;18.23;nan
46408;BME280;32110;45.724;21.276;2023-07-02T02:24:06;99592.75;;;18.18;nan
46408;BME280;32110;45.724;21.276;2023-07-02T02:26:33;99587.03;;;18.11;nan
46408;BME280;32110;45.724;21.276;2023-07-02T02:28:58;99589.19;;;18.09;nan
46408;BME280;32110;45.724;21.276;2023-07-02T02:31:24;99578.91;;;18.02;nan
46408;BME280;32110;45.724;21.276;2023-07-02T02:33:49;99576.06;;;17.98;nan
46408;BME280;32110;45.724;21.276;2023-07-02T02:36:14;99580.91;;;17.96;nan
46408;BME280;32110;45.724;21.276;2023-07-02T02:38:41;99589.38;;;17.98;nan
46408;BME280;32110;45.724;21.276;2023-07-02T02:41:06;99585.22;;;17.92;nan
46408;BME280;32110;45.724;21.276;2023-07-02T02:43:33;99587.09;;;17.92;nan
46408;BME280;32110;45.724;21.276;2023-07-02T02:45:59;99586.88;;;17.88;nan
46408;BME280;32110;45.724;21.276;2023-07-02T02:48:25;99583.72;;;17.86;nan
46408;BME280;32110;45.724;21.276;2023-07-02T02:50:50;99568.47;;;17.73;nan
46408;BME280;32110;45.724;21.276;2023-07-02T02:53:15;99593.47;;;17.77;nan
46408;BME280;32110;45.724;21.276;2023-07-02T02:55:41;99598.06;;;17.71;nan
46408;BME280;32110;45.724;21.276;2023-07-02T02:58:06;99603.88;;;17.73;nan
46408;BME280;32110;45.724;21.276;2023-07-02T03:00:31;99608.34;;;17.78;nan
46408;BME280;32110;45.724;21.276;2023-07-02T03:02:58;99593.50;;;17.72;nan
46408;BME280;32110;45.724;21.276;2023-07-02T03:05:24;99598.28;;;17.75;nan
46408;BME280;32110;45.724;21.276;2023-07-02T03:07:50;99595.91;;;17.73;nan
46408;BME280;32110;45.724;21.276;2023-07-02T03:10:16;99594.88;;;17.69;nan
46408;BME280;32110;45.724;21.276;2023-07-02T03:12:41;99586.50;;;17.62;nan
46408;BME280;32110;45.724;21.276;2023-07-02T03:15:06;99601.59;;;17.67;nan
46408;BME280;32110;45.724;21.276;2023-07-02T03:17:33;99596.06;;;17.63;nan
46408;BME280;32110;45.724;21.276;2023-07-02T03:19:58;99600.09;;;17.60;nan
46408;BME280;32110;45.724;21.276;2023-07-02T03:22:24;99583.81;;;17.48;nan
46408;BME280;32110;45.724;21.276;2023-07-02T03:24:49;99613.41;;;17.60;nan
46408;BME280;32110;45.724;21.276;2023-07-02T03:27:14;99622.69;;;17.63;nan
46408;BME280;32110;45.724;21.276;2023-07-02T03:29:40;99618.16;;;17.63;nan
46408;BME280;32110;45.724;21.276;2023-07-02T03:32:05;99608.00;;;17.65;nan
46408;BME280;32110;45.724;21.276;2023-07-02T03:34:31;99621.81;;;17.68;nan
46408;BME280;32110;45.724;21.276;2023-07-02T03:36:56;99619.44;;;17.66;nan
46408;BME280;32110;45.724;21.276;2023-07-02T03:39:22;99619.72;;;17.64;nan
46408;BME280;32110;45.724;21.276;2023-07-02T03:41:47;99621.81;;;17.68;nan
46408;BME280;32110;45.724;21.276;2023-07-02T03:44:13;99639.38;;;17.69;nan
46408;BME280;32110;45.724;21.276;2023-07-02T03:46:38;99631.69;;;17.67;nan
46408;BME280;32110;45.724;21.276;2023-07-02T03:49:03;99631.38;;;17.69;nan
46408;BME280;32110;45.724;21.276;2023-07-02T03:51:30;99634.28;;;17.72;nan
46408;BME280;32110;45.724;21.276;2023-07-02T03:53:55;99633.69;;;17.75;nan
46408;BME280;32110;45.724;21.276;2023-07-02T03:56:20;99628.06;;;17.77;nan
46408;BME280;32110;45.724;21.276;2023-07-02T03:58:46;99624.31;;;17.78;nan
46408;BME280;32110;45.724;21.276;2023-07-02T04:01:11;99621.81;;;17.87;nan
46408;BME280;32110;45.724;21.276;2023-07-02T04:03:37;99620.13;;;17.91;nan
46408;BME280;32110;45.724;21.276;2023-07-02T04:06:03;99641.56;;;17.99;nan
46408;BME280;32110;45.724;21.276;2023-07-02T04:08:30;99633.78;;;18.03;nan
46408;BME280;32110;45.724;21.276;2023-07-02T04:10:56;99630.03;;;18.04;nan
46408;BME280;32110;45.724;21.276;2023-07-02T04:13:21;99621.25;;;18.03;nan
46408;BME280;32110;45.724;21.276;2023-07-02T04:15:47;99633.50;;;18.18;nan
46408;BME280;32110;45.724;21.276;2023-07-02T04:18:12;99628.19;;;18.18;nan
46408;BME280;32110;45.724;21.276;2023-07-02T04:20:38;99645.09;;;18.27;nan
46408;BME280;32110;45.724;21.276;2023-07-02T04:23:04;99642.09;;;18.29;nan
46408;BME280;32110;45.724;21.276;2023-07-02T04:25:30;99646.88;;;18.32;nan
46408;BME280;32110;45.724;21.276;2023-07-02T04:27:55;99653.66;;;18.38;nan
46408;BME280;32110;45.724;21.276;2023-07-02T04:30:22;99651.78;;;18.39;nan
46408;BME280;32110;45.724;21.276;2023-07-02T04:32:47;99658.91;;;18.43;nan
46408;BME280;32110;45.724;21.276;2023-07-02T04:35:13;99650.63;;;18.45;nan
46408;BME280;32110;45.724;21.276;2023-07-02T04:37:38;99651.13;;;18.47;nan
46408;BME280;32110;45.724;21.276;2023-07-02T04:40:04;99643.91;;;18.47;nan
46408;BME280;32110;45.724;21.276;2023-07-02T04:42:41;99656.34;;;18.52;nan
46408;BME280;32110;45.724;21.276;2023-07-02T04:45:12;99660.28;;;18.55;nan
46408;BME280;32110;45.724;21.276;2023-07-02T04:47:38;99624.06;;;18.40;nan
46408;BME280;32110;45.724;21.276;2023-07-02T04:50:04;99654.88;;;18.60;nan
46408;BME280;32110;45.724;21.276;2023-07-02T04:52:30;99625.25;;;18.47;nan
46408;BME280;32110;45.724;21.276;2023-07-02T04:54:56;99661.59;;;18.71;nan
46408;BME280;32110;45.724;21.276;2023-07-02T04:57:22;99657.81;;;18.72;nan
46408;BME280;32110;45.724;21.276;2023-07-02T04:59:47;99648.25;;;18.71;nan
46408;BME280;32110;45.724;21.276;2023-07-02T05:02:13;99656.69;;;18.78;nan
46408;BME280;32110;45.724;21.276;2023-07-02T05:04:38;99661.00;;;18.88;nan
46408;BME280;32110;45.724;21.276;2023-07-02T05:07:04;99660.78;;;18.98;nan
46408;BME280;32110;45.724;21.276;2023-07-02T05:09:29;99654.28;;;19.04;nan
46408;BME280;32110;45.724;21.276;2023-07-02T05:11:55;99661.28;;;19.14;nan
46408;BME280;32110;45.724;21.276;2023-07-02T05:14:20;99660.09;;;19.20;nan
46408;BME280;32110;45.724;21.276;2023-07-02T05:16:45;99656.81;;;19.23;nan
46408;BME280;32110;45.724;21.276;2023-07-02T05:19:11;99668.44;;;19.27;nan
46408;BME280;32110;45.724;21.276;2023-07-02T05:21:36;99672.59;;;19.33;nan
46408;BME280;32110;45.724;21.276;2023-07-02T05:24:02;99664.88;;;19.32;nan
46408;BME280;32110;45.724;21.276;2023-07-02T05:26:27;99675.94;;;19.39;nan
46408;BME280;32110;45.724;21.276;2023-07-02T05:28:53;99658.94;;;19.35;nan
46408;BME280;32110;45.724;21.276;2023-07-02T05:31:18;99673.16;;;19.44;nan
46408;BME280;32110;45.724;21.276;2023-07-02T05:33:44;99671.28;;;19.45;nan
46408;BME280;32110;45.724;21.276;2023-07-02T05:36:09;99674.31;;;19.52;nan
46408;BME280;32110;45.724;21.276;2023-07-02T05:38:34;99677.50;;;19.54;nan
46408;BME280;32110;45.724;21.276;2023-07-02T05:41:00;99682.72;;;19.59;nan
46408;BME280;32110;45.724;21.276;2023-07-02T05:43:25;99675.19;;;19.61;nan
46408;BME280;32110;45.724;21.276;2023-07-02T05:45:51;99685.16;;;19.69;nan
46408;BME280;32110;45.724;21.276;2023-07-02T05:48:17;99686.94;;;19.74;nan
46408;BME280;32110;45.724;21.276;2023-07-02T05:50:43;99682.84;;;19.76;nan
46408;BME280;32110;45.724;21.276;2023-07-02T05:53:08;99683.84;;;19.81;nan
46408;BME280;32110;45.724;21.276;2023-07-02T05:55:35;99679.00;;;19.83;nan
46408;BME280;32110;45.724;21.276;2023-07-02T05:58:00;99681.41;;;19.93;nan
46408;BME280;32110;45.724;21.276;2023-07-02T06:00:28;99687.72;;;19.97;nan
46408;BME280;32110;45.724;21.276;2023-07-02T06:02:53;99664.22;;;19.85;nan
46408;BME280;32110;45.724;21.276;2023-07-02T06:05:18;99687.75;;;20.06;nan
46408;BME280;32110;45.724;21.276;2023-07-02T06:07:44;99689.66;;;20.05;nan
46408;BME280;32110;45.724;21.276;2023-07-02T06:10:09;99692.81;;;20.07;nan
46408;BME280;32110;45.724;21.276;2023-07-02T06:12:35;99694.09;;;20.10;nan
46408;BME280;32110;45.724;21.276;2023-07-02T06:15:00;99695.19;;;20.09;nan
46408;BME280;32110;45.724;21.276;2023-07-02T06:17:25;99690.13;;;20.07;nan
46408;BME280;32110;45.724;21.276;2023-07-02T06:19:51;99691.13;;;20.11;nan
46408;BME280;32110;45.724;21.276;2023-07-02T06:22:17;99691.13;;;20.11;nan
46408;BME280;32110;45.724;21.276;2023-07-02T06:24:42;99698.69;;;20.18;nan
46408;BME280;32110;45.724;21.276;2023-07-02T06:27:07;99700.44;;;20.23;nan
46408;BME280;32110;45.724;21.276;2023-07-02T06:29:33;99694.16;;;20.18;nan
46408;BME280;32110;45.724;21.276;2023-07-02T06:31:59;99710.69;;;20.29;nan
46408;BME280;32110;45.724;21.276;2023-07-02T06:34:24;99711.00;;;20.28;nan
46408;BME280;32110;45.724;21.276;2023-07-02T06:36:49;99697.97;;;20.26;nan
46408;BME280;32110;45.724;21.276;2023-07-02T06:39:15;99688.81;;;20.27;nan
46408;BME280;32110;45.724;21.276;2023-07-02T06:41:40;99700.06;;;20.38;nan
46408;BME280;32110;45.724;21.276;2023-07-02T06:44:06;99702.41;;;20.39;nan
46408;BME280;32110;45.724;21.276;2023-07-02T06:46:32;99714.25;;;20.47;nan
46408;BME280;32110;45.724;21.276;2023-07-02T06:48:57;99703.56;;;20.47;nan
46408;BME280;32110;45.724;21.276;2023-07-02T06:51:22;99705.00;;;20.53;nan
46408;BME280;32110;45.724;21.276;2023-07-02T06:53:50;99706.88;;;20.53;nan
46408;BME280;32110;45.724;21.276;2023-07-02T06:56:15;99702.53;;;20.57;nan
46408;BME280;32110;45.724;21.276;2023-07-02T06:58:42;99679.59;;;20.42;nan
46408;BME280;32110;45.724;21.276;2023-07-02T07:01:08;99704.44;;;20.65;nan
46408;BME280;32110;45.724;21.276;2023-07-02T07:03:34;99689.47;;;20.55;nan
46408;BME280;32110;45.724;21.276;2023-07-02T07:05:59;99709.84;;;20.74;nan
46408;BME280;32110;45.724;21.276;2023-07-02T07:08:25;99718.22;;;20.81;nan
46408;BME280;32110;45.724;21.276;2023-07-02T07:10:50;99710.19;;;20.81;nan
46408;BME280;32110;45.724;21.276;2023-07-02T07:13:15;99709.72;;;20.88;nan
46408;BME280;32110;45.724;21.276;2023-07-02T07:15:41;99716.34;;;20.99;nan
46408;BME280;32110;45.724;21.276;2023-07-02T07:18:08;99721.91;;;21.02;nan
46408;BME280;32110;45.724;21.276;2023-07-02T07:20:34;99716.38;;;21.08;nan
46408;BME280;32110;45.724;21.276;2023-07-02T07:22:59;99718.75;;;21.09;nan
46408;BME280;32110;45.724;21.276;2023-07-02T07:25:25;99725.69;;;21.19;nan
46408;BME280;32110;45.724;21.276;2023-07-02T07:27:51;99731.53;;;21.21;nan
46408;BME280;32110;45.724;21.276;2023-07-02T07:30:17;99734.84;;;21.27;nan
46408;BME280;32110;45.724;21.276;2023-07-02T07:32:48;99737.53;;;21.27;nan
46408;BME280;32110;45.724;21.276;2023-07-02T07:35:13;99729.31;;;21.23;nan
46408;BME280;32110;45.724;21.276;2023-07-02T07:37:38;99736.59;;;21.31;nan
46408;BME280;32110;45.724;21.276;2023-07-02T07:40:04;99734.53;;;21.28;nan
46408;BME280;32110;45.724;21.276;2023-07-02T07:42:31;99747.16;;;21.36;nan
46408;BME280;32110;45.724;21.276;2023-07-02T07:44:56;99744.94;;;21.30;nan
46408;BME280;32110;45.724;21.276;2023-07-02T07:47:22;99745.56;;;21.35;nan
46408;BME280;32110;45.724;21.276;2023-07-02T07:49:47;99753.78;;;21.39;nan
46408;BME280;32110;45.724;21.276;2023-07-02T07:52:12;99757.09;;;21.36;nan
46408;BME280;32110;45.724;21.276;2023-07-02T07:54:38;99756.16;;;21.40;nan
46408;BME280;32110;45.724;21.276;2023-07-02T07:57:04;99746.81;;;21.38;nan
46408;BME280;32110;45.724;21.276;2023-07-02T07:59:30;99758.22;;;21.43;nan
46408;BME280;32110;45.724;21.276;2023-07-02T08:01:55;99754.78;;;21.43;nan
46408;BME280;32110;45.724;21.276;2023-07-02T08:04:20;99752.41;;;21.41;nan
46408;BME280;32110;45.724;21.276;2023-07-02T08:06:46;99757.59;;;21.47;nan
46408;BME280;32110;45.724;21.276;2023-07-02T08:09:11;99765.81;;;21.50;nan
46408;BME280;32110;45.724;21.276;2023-07-02T08:11:37;99751.94;;;21.48;nan
46408;BME280;32110;45.724;21.276;2023-07-02T08:14:02;99756.81;;;21.55;nan
46408;BME280;32110;45.724;21.276;2023-07-02T08:16:27;99759.19;;;21.56;nan
46408;BME280;32110;45.724;21.276;2023-07-02T08:18:53;99757.13;;;21.62;nan
46408;BME280;32110;45.724;21.276;2023-07-02T08:21:18;99750.69;;;21.63;nan
46408;BME280;32110;45.724;21.276;2023-07-02T08:23:43;99751.94;;;21.65;nan
46408;BME280;32110;45.724;21.276;2023-07-02T08:26:09;99684.31;;;21.69;nan
46408;BME280;32110;45.724;21.276;2023-07-02T08:28:36;99690.94;;;21.71;nan
46408;BME280;32110;45.724;21.276;2023-07-02T08:31:03;99704.97;;;21.77;nan
46408;BME280;32110;45.724;21.276;2023-07-02T08:33:29;99637.81;;;21.82;nan
46408;BME280;32110;45.724;21.276;2023-07-02T08:35:55;99683.03;;;21.83;nan
46408;BME280;32110;45.724;21.276;2023-07-02T08:38:21;99718.53;;;21.89;nan
46408;BME280;32110;45.724;21.276;2023-07-02T08:40:46;99697.22;;;21.93;nan
46408;BME280;32110;45.724;21.276;2023-07-02T08:43:12;99746.56;;;22.00;nan
46408;BME280;32110;45.724;21.276;2023-07-02T08:45:37;99716.75;;;22.11;nan
46408;BME280;32110;45.724;21.276;2023-07-02T08:48:05;99758.06;;;22.18;nan
46408;BME280;32110;45.724;21.276;2023-07-02T08:50:31;99685.34;;;22.28;nan
46408;BME280;32110;45.724;21.276;2023-07-02T08:52:56;99695.75;;;22.39;nan
46408;BME280;32110;45.724;21.276;2023-07-02T08:55:21;99702.00;;;22.51;nan
46408;BME280;32110;45.724;21.276;2023-07-02T08:57:51;99692.31;;;22.68;nan
46408;BME280;32110;45.724;21.276;2023-07-02T09:00:17;99709.16;;;22.77;nan
46408;BME280;32110;45.724;21.276;2023-07-02T09:02:43;99709.56;;;22.88;nan
46408;BME280;32110;45.724;21.276;2023-07-02T09:05:09;99648.75;;;22.92;nan
46408;BME280;32110;45.724;21.276;2023-07-02T09:07:48;99722.91;;;23.05;nan
46408;BME280;32110;45.724;21.276;2023-07-02T09:10:30;99701.84;;;23.16;nan
46408;BME280;32110;45.724;21.276;2023-07-02T09:13:04;99717.88;;;23.25;nan
46408;BME280;32110;45.724;21.276;2023-07-02T09:15:40;99727.34;;;23.31;nan
46408;BME280;32110;45.724;21.276;2023-07-02T09:18:26;99703.63;;;23.33;nan
46408;BME280;32110;45.724;21.276;2023-07-02T09:20:54;99705.19;;;23.34;nan
46408;BME280;32110;45.724;21.276;2023-07-02T09:23:20;99747.06;;;23.35;nan
46408;BME280;32110;45.724;21.276;2023-07-02T09:28:18;99723.94;;;23.43;nan
46408;BME280;32110;45.724;21.276;2023-07-02T09:30:55;99648.19;;;23.49;nan
46408;BME280;32110;45.724;21.276;2023-07-02T09:33:23;99711.50;;;23.59;nan
46408;BME280;32110;45.724;21.276;2023-07-02T09:35:49;99721.50;;;23.71;nan
46408;BME280;32110;45.724;21.276;2023-07-02T09:40:45;99714.28;;;24.05;nan
46408;BME280;32110;45.724;21.276;2023-07-02T09:43:12;99723.16;;;24.17;nan
46408;BME280;32110;45.724;21.276;2023-07-02T09:45:52;99710.97;;;24.32;nan
46408;BME280;32110;45.724;21.276;2023-07-02T09:48:22;99815.97;;;24.45;nan
46408;BME280;32110;45.724;21.276;2023-07-02T09:50:49;99680.75;;;24.60;nan
46408;BME280;32110;45.724;21.276;2023-07-02T09:53:15;99692.06;;;24.66;nan
46408;BME280;32110;45.724;21.276;2023-07-02T09:55:43;99727.41;;;24.76;nan
46408;BME280;32110;45.724;21.276;2023-07-02T09:58:09;99683.78;;;24.83;nan
46408;BME280;32110;45.724;21.276;2023-07-02T10:00:37;99731.22;;;24.88;nan
46408;BME280;32110;45.724;21.276;2023-07-02T10:03:03;99692.16;;;24.94;nan
46408;BME280;32110;45.724;21.276;2023-07-02T10:07:56;99727.19;;;25.18;nan
46408;BME280;32110;45.724;21.276;2023-07-02T10:10:40;99655.53;;;25.30;nan
46408;BME280;32110;45.724;21.276;2023-07-02T10:13:05;99722.53;;;25.43;nan
46408;BME280;32110;45.724;21.276;2023-07-02T10:15:31;99721.50;;;25.48;nan
46408;BME280;32110;45.724;21.276;2023-07-02T10:18:02;99674.25;;;25.66;nan
46408;BME280;32110;45.724;21.276;2023-07-02T10:20:46;99661.50;;;25.79;nan
46408;BME280;32110;45.724;21.276;2023-07-02T10:23:11;99660.09;;;25.85;nan
46408;BME280;32110;45.724;21.276;2023-07-02T10:28:19;99668.84;;;25.95;nan
46408;BME280;32110;45.724;21.276;2023-07-02T10:30:47;99678.63;;;25.99;nan
46408;BME280;32110;45.724;21.276;2023-07-02T10:33:17;99668.25;;;26.01;nan
46408;BME280;32110;45.724;21.276;2023-07-02T10:35:44;99672.97;;;26.04;nan
46408;BME280;32110;45.724;21.276;2023-07-02T10:38:23;99654.44;;;26.03;nan
46408;BME280;32110;45.724;21.276;2023-07-02T10:40:58;99658.06;;;25.95;nan
46408;BME280;32110;45.724;21.276;2023-07-02T10:43:28;99705.06;;;25.94;nan
46408;BME280;32110;45.724;21.276;2023-07-02T10:45:54;99632.75;;;25.99;nan
46408;BME280;32110;45.724;21.276;2023-07-02T10:48:20;99667.81;;;25.99;nan
46408;BME280;32110;45.724;21.276;2023-07-02T10:50:45;99632.50;;;25.88;nan
46408;BME280;32110;45.724;21.276;2023-07-02T10:53:18;99650.47;;;25.84;nan
46408;BME280;32110;45.724;21.276;2023-07-02T10:55:44;99621.91;;;25.83;nan
46408;BME280;32110;45.724;21.276;2023-07-02T10:58:10;99632.38;;;25.85;nan
46408;BME280;32110;45.724;21.276;2023-07-02T11:00:45;99665.88;;;25.84;nan
46408;BME280;32110;45.724;21.276;2023-07-02T11:03:20;99661.94;;;25.81;nan
46408;BME280;32110;45.724;21.276;2023-07-02T11:05:47;99649.75;;;25.72;nan
46408;BME280;32110;45.724;21.276;2023-07-02T11:08:12;99641.84;;;25.79;nan
46408;BME280;32110;45.724;21.276;2023-07-02T11:10:38;99662.38;;;25.83;nan
46408;BME280;32110;45.724;21.276;2023-07-02T11:13:15;99660.47;;;25.84;nan
46408;BME280;32110;45.724;21.276;2023-07-02T11:15:41;99640.31;;;25.94;nan
46408;BME280;32110;45.724;21.276;2023-07-02T11:18:17;99647.38;;;25.98;nan
46408;BME280;32110;45.724;21.276;2023-07-02T11:20:44;99662.75;;;25.98;nan
46408;BME280;32110;45.724;21.276;2023-07-02T11:23:24;99642.00;;;25.98;nan
46408;BME280;32110;45.724;21.276;2023-07-02T11:28:22;99631.72;;;25.76;nan
46408;BME280;32110;45.724;21.276;2023-07-02T11:30:47;99636.88;;;25.81;nan
46408;BME280;32110;45.724;21.276;2023-07-02T11:33:13;99658.75;;;25.63;nan
46408;BME280;32110;45.724;21.276;2023-07-02T11:35:38;99615.63;;;25.63;nan
46408;BME280;32110;45.724;21.276;2023-07-02T11:38:04;99636.59;;;25.70;nan
46408;BME280;32110;45.724;21.276;2023-07-02T11:40:29;99692.47;;;25.70;nan
46408;BME280;32110;45.724;21.276;2023-07-02T11:42:55;99663.72;;;25.61;nan
46408;BME280;32110;45.724;21.276;2023-07-02T11:45:20;99682.13;;;25.59;nan
46408;BME280;32110;45.724;21.276;2023-07-02T11:47:45;99683.28;;;25.58;nan
46408;BME280;32110;45.724;21.276;2023-07-02T11:50:11;99677.44;;;25.56;nan
46408;BME280;32110;45.724;21.276;2023-07-02T11:52:36;99686.31;;;25.57;nan
46408;BME280;32110;45.724;21.276;2023-07-02T11:55:02;99671.84;;;25.49;nan
46408;BME280;32110;45.724;21.276;2023-07-02T11:57:27;99667.16;;;25.46;nan
46408;BME280;32110;45.724;21.276;2023-07-02T11:59:53;99663.22;;;25.43;nan
46408;BME280;32110;45.724;21.276;2023-07-02T12:02:18;99673.31;;;25.46;nan
46408;BME280;32110;45.724;21.276;2023-07-02T12:04:44;99665.38;;;25.38;nan
46408;BME280;32110;45.724;21.276;2023-07-02T12:07:09;99673.56;;;25.41;nan
46408;BME280;32110;45.724;21.276;2023-07-02T12:09:36;99670.75;;;25.38;nan
46408;BME280;32110;45.724;21.276;2023-07-02T12:12:02;99660.22;;;25.33;nan
46408;BME280;32110;45.724;21.276;2023-07-02T12:14:27;99661.13;;;25.37;nan
46408;BME280;32110;45.724;21.276;2023-07-02T12:16:53;99689.16;;;25.48;nan
46408;BME280;32110;45.724;21.276;2023-07-02T12:19:19;99683.31;;;25.46;nan
46408;BME280;32110;45.724;21.276;2023-07-02T12:21:44;99691.88;;;25.48;nan
46408;BME280;32110;45.724;21.276;2023-07-02T12:24:09;99696.25;;;25.40;nan
46408;BME280;32110;45.724;21.276;2023-07-02T12:26:36;99690.31;;;25.35;nan
46408;BME280;32110;45.724;21.276;2023-07-02T12:29:02;99695.75;;;25.22;nan
46408;BME280;32110;45.724;21.276;2023-07-02T12:31:27;99698.00;;;25.20;nan
46408;BME280;32110;45.724;21.276;2023-07-02T12:33:52;99707.84;;;25.16;nan
46408;BME280;32110;45.724;21.276;2023-07-02T12:36:18;99710.69;;;24.95;nan
46408;BME280;32110;45.724;21.276;2023-07-02T12:38:43;99700.34;;;24.85;nan
46408;BME280;32110;45.724;21.276;2023-07-02T12:41:08;99702.94;;;24.81;nan
46408;BME280;32110;45.724;21.276;2023-07-02T12:43:34;99691.75;;;24.67;nan
46408;BME280;32110;45.724;21.276;2023-07-02T12:45:59;99686.13;;;24.48;nan
46408;BME280;32110;45.724;21.276;2023-07-02T12:48:25;99690.47;;;24.40;nan
46408;BME280;32110;45.724;21.276;2023-07-02T12:50:57;99690.72;;;24.47;nan
46408;BME280;32110;45.724;21.276;2023-07-02T12:53:24;99690.38;;;24.49;nan
46408;BME280;32110;45.724;21.276;2023-07-02T12:55:50;99680.94;;;24.42;nan
46408;BME280;32110;45.724;21.276;2023-07-02T12:58:15;99688.47;;;24.49;nan
46408;BME280;32110;45.724;21.276;2023-07-02T13:00:41;99685.19;;;24.44;nan
46408;BME280;32110;45.724;21.276;2023-07-02T13:03:10;99683.91;;;24.50;nan
46408;BME280;32110;45.724;21.276;2023-07-02T13:05:35;99696.66;;;24.53;nan
46408;BME280;32110;45.724;21.276;2023-07-02T13:08:01;99697.44;;;24.53;nan
46408;BME280;32110;45.724;21.276;2023-07-02T13:10:26;99694.19;;;24.48;nan
46408;BME280;32110;45.724;21.276;2023-07-02T13:12:52;99700.22;;;24.45;nan
46408;BME280;32110;45.724;21.276;2023-07-02T13:15:17;99704.56;;;24.37;nan
46408;BME280;32110;45.724;21.276;2023-07-02T13:17:42;99710.41;;;24.27;nan
46408;BME280;32110;45.724;21.276;2023-07-02T13:20:09;99714.16;;;24.13;nan
46408;BME280;32110;45.724;21.276;2023-07-02T13:22:34;99708.66;;;23.97;nan